Roanoke Rapids, North Carolina
Current Conditions -  °F | °C
As of 3:35 PM on Monday 26 Jan 2015 (Local Time) from KIXA Reporting Station
Overcast Overcast  
Wind Chill: 50°   Ceiling: 3400
Heat Index: 50°   Visibility: 10mi
Dew Point: 39°   Wind: 8mph
Humidity: 66%   Direction: 330°NNW
Pressure: 29.56"   Gusts: NA
Location:  36.48°N, 77.65°W
Report Text: KIXA 262035Z AUTO 33007KT 10SM OVC034 10/04 A2956 RMK AO2
Loading
Personal Weather Stations






























Interactive Weather Map New forecast layout! Learn more

10-Day Weather Forecast

Advertisements
Track Severe Weather on mobile